Time;durP1;ratioP1;P1;durP2;ratioP2;P2;SDS_P1;SDS_P2;PMS_P1;PMS_P2;Temp;Humidity;BMP_temperature;BMP_pressure;BME280_temperature;BME280_humidity;BME280_pressure;Samples;Min_cycle;Max_cycle;Signal;HPM_P1;HPM_P2
2021/03/24 00:00:19;;;;;;;19.77;9.85;;;;;;;3.19;74.77;99109.91;5091770;28;20494;-74
2021/03/24 00:02:45;;;;;;;25.70;13.15;;;;;;;3.16;74.76;99115.81;5089707;28;20391;-74
2021/03/24 00:05:13;;;;;;;22.67;12.85;;;;;;;3.17;74.80;99117.47;5091320;28;20036;-74
2021/03/24 00:07:39;;;;;;;23.75;11.75;;;;;;;3.20;74.27;99114.28;5090511;28;20047;-74
2021/03/24 00:10:06;;;;;;;20.38;10.93;;;;;;;3.22;74.58;99107.56;5095903;28;20460;-75
2021/03/24 00:12:34;;;;;;;23.02;11.63;;;;;;;3.22;74.03;99112.16;5090005;28;20043;-75
2021/03/24 00:14:59;;;;;;;21.80;11.43;;;;;;;3.22;74.16;99112.97;5089959;28;20476;-74
2021/03/24 00:17:24;;;;;;;18.65;10.10;;;;;;;3.21;74.56;99115.94;5090378;28;20055;-74
2021/03/24 00:19:49;;;;;;;22.73;11.82;;;;;;;3.21;74.70;99116.75;5090261;28;20028;-74
2021/03/24 00:22:15;;;;;;;16.90;9.27;;;;;;;3.21;74.11;99115.94;5090194;28;20472;-74
2021/03/24 00:24:40;;;;;;;23.20;11.10;;;;;;;3.22;74.03;99114.88;5090299;28;20032;-74
2021/03/24 00:27:06;;;;;;;18.50;9.05;;;;;;;3.23;73.79;99109.22;5090375;28;20074;-74
2021/03/24 00:29:31;;;;;;;20.52;9.98;;;;;;;3.23;74.04;99109.22;5089987;28;20513;-74
2021/03/24 00:31:56;;;;;;;16.70;9.13;;;;;;;3.23;74.30;99113.81;5088748;28;20668;-74
2021/03/24 00:34:22;;;;;;;21.95;11.38;;;;;;;3.23;73.78;99114.63;5090250;28;20020;-74
2021/03/24 00:36:47;;;;;;;19.20;10.02;;;;;;;3.24;73.50;99116.28;5088599;28;20035;-74
2021/03/24 00:39:17;;;;;;;19.23;10.07;;;;;;;3.24;74.27;99116.28;5090300;28;20044;-74
2021/03/24 00:41:42;;;;;;;22.38;11.48;;;;;;;3.24;73.50;99115.47;5089072;28;20032;-75
2021/03/24 00:44:07;;;;;;;19.50;11.15;;;;;;;3.23;74.22;99108.41;5089503;28;20024;-75
2021/03/24 00:46:33;;;;;;;20.48;10.80;;;;;;;3.23;74.24;99108.41;5090067;28;20089;-75
2021/03/24 00:48:58;;;;;;;14.85;7.95;;;;;;;3.26;74.33;99114.19;5089918;28;20599;-75
2021/03/24 00:51:23;;;;;;;21.08;10.70;;;;;;;3.27;74.22;99106.84;5088418;28;20034;-75
2021/03/24 00:53:48;;;;;;;18.55;10.73;;;;;;;3.29;74.04;99112.88;5090173;28;20032;-75
2021/03/24 00:56:14;;;;;;;17.63;8.82;;;;;;;3.30;73.33;99114.53;5089332;28;20416;-75
2021/03/24 00:58:39;;;;;;;17.88;10.38;;;;;;;3.33;73.37;99103.22;5089698;28;20028;-75
2021/03/24 01:01:04;;;;;;;18.38;10.18;;;;;;;3.36;73.16;99101.94;5089676;28;20028;-75
2021/03/24 01:03:30;;;;;;;21.65;10.38;;;;;;;3.34;73.46;99104.88;5089245;28;20123;-75
2021/03/24 01:05:55;;;;;;;19.10;10.38;;;;;;;3.38;73.70;99106.06;5090151;28;20028;-75
2021/03/24 01:08:23;;;;;;;19.60;10.82;;;;;;;3.37;73.16;99106.31;5089403;28;20031;-75
2021/03/24 01:10:49;;;;;;;21.40;10.77;;;;;;;3.35;73.04;99109.22;5089402;28;20032;-74
2021/03/24 01:13:16;;;;;;;19.05;10.55;;;;;;;3.35;73.52;99101.09;5089636;28;20039;-75
2021/03/24 01:15:41;;;;;;;20.83;10.90;;;;;;;3.34;72.82;99104.06;5089472;28;20036;-75
2021/03/24 01:18:07;;;;;;;20.90;11.02;;;;;;;3.33;73.21;99099.69;5089418;28;20028;-75
2021/03/24 01:20:35;;;;;;;19.73;11.05;;;;;;;3.30;72.90;99098.25;5087211;28;20032;-75
2021/03/24 01:23:01;;;;;;;19.20;10.02;;;;;;;3.28;73.21;99101.22;5087813;28;20028;-76
2021/03/24 01:25:26;;;;;;;22.27;12.13;;;;;;;3.27;73.30;99098.72;5089442;28;20059;-76
2021/03/24 01:27:53;;;;;;;19.80;10.70;;;;;;;3.29;73.60;99110.16;5088822;28;20180;-75
2021/03/24 01:30:21;;;;;;;22.73;12.00;;;;;;;3.30;72.69;99105.59;5088991;28;20375;-75
2021/03/24 01:32:47;;;;;;;23.67;13.07;;;;;;;3.30;73.25;99103.69;5089623;28;20062;-75
2021/03/24 01:35:14;;;;;;;19.70;10.63;;;;;;;3.27;73.34;99098.72;5089056;28;20108;-75
2021/03/24 01:37:40;;;;;;;18.90;10.98;;;;;;;3.25;73.12;99101.69;5089083;28;20419;-75
2021/03/24 01:40:08;;;;;;;23.65;12.85;;;;;;;3.24;72.85;99100.03;5089449;28;20024;-76
2021/03/24 01:42:34;;;;;;;21.35;12.35;;;;;;;3.24;72.94;99099.22;5088957;28;20080;-76
2021/03/24 01:45:14;;;;;;;17.75;9.43;;;;;;;3.20;73.62;99096.13;5089062;28;20020;-76
2021/03/24 01:47:40;;;;;;;18.02;10.60;;;;;;;3.17;73.40;99095.78;5089073;28;20453;-76
2021/03/24 01:50:13;;;;;;;16.83;10.50;;;;;;;3.20;73.77;99095.31;5086896;28;20024;-76
2021/03/24 01:52:39;;;;;;;20.38;11.00;;;;;;;3.22;73.29;99094.00;5088569;28;20028;-76
2021/03/24 01:55:05;;;;;;;20.13;10.77;;;;;;;3.26;72.99;99097.09;5088948;28;20488;-76
2021/03/24 01:57:30;;;;;;;19.98;11.20;;;;;;;3.28;73.04;99100.38;5089281;28;20400;-75
2021/03/24 01:59:56;;;;;;;20.40;10.90;;;;;;;3.27;73.53;99096.84;5089330;28;20024;-76
2021/03/24 02:02:26;;;;;;;21.30;12.05;;;;;;;3.28;73.33;99101.22;5088842;28;20681;-76
2021/03/24 02:04:52;;;;;;;;;;;;;;;3.31;73.04;99105.34;5086463;28;20574;-77
2021/03/24 02:07:32;;;;;;;21.95;11.80;;;;;;;3.28;73.37;99103.94;5088396;28;20015;-76
2021/03/24 02:10:10;;;;;;;19.00;10.57;;;;;;;3.31;73.36;99105.34;5089159;28;20387;-76
2021/03/24 02:12:43;;;;;;;18.63;10.65;;;;;;;3.33;73.46;99113.25;5088805;28;20028;-77
2021/03/24 02:15:21;;;;;;;18.42;9.48;;;;;;;3.28;73.03;99106.63;5088099;28;20132;-76
2021/03/24 02:17:47;;;;;;;18.63;10.18;;;;;;;3.30;73.74;99105.59;5087762;28;20031;-76
2021/03/24 02:20:22;;;;;;;16.35;10.70;;;;;;;3.27;72.97;99113.13;5087679;28;20028;-77
2021/03/24 02:22:54;;;;;;;17.90;10.25;;;;;;;3.28;73.03;99112.06;5086795;28;20464;-77
2021/03/24 02:25:29;;;;;;;17.83;10.15;;;;;;;3.29;73.46;99115.59;5088247;28;20024;-76
2021/03/24 02:27:58;;;;;;;18.17;10.88;;;;;;;3.27;72.99;99115.81;5088809;28;20030;-76
2021/03/24 02:30:37;;;;;;;18.92;11.05;;;;;;;3.29;73.13;99112.88;5089186;28;20051;-76
2021/03/24 02:33:16;;;;;;;18.83;10.43;;;;;;;3.26;73.46;99114.19;5092538;28;20031;-76
2021/03/24 02:35:45;;;;;;;19.58;10.25;;;;;;;3.27;72.95;99118.53;5091726;28;20039;-76
2021/03/24 02:38:13;;;;;;;18.33;11.18;;;;;;;3.26;73.11;99114.19;5091289;28;20106;-76
2021/03/24 02:40:41;;;;;;;20.50;10.98;;;;;;;3.25;73.24;99119.84;5092335;28;20535;-76
2021/03/24 02:43:08;;;;;;;18.00;10.35;;;;;;;3.22;72.87;99118.41;5090941;28;20491;-76
2021/03/24 02:45:37;;;;;;;18.95;9.73;;;;;;;3.22;73.03;99115.69;5092665;28;20484;-76
2021/03/24 02:48:20;;;;;;;18.77;10.63;;;;;;;3.21;72.95;99118.66;5092000;28;20039;-75
2021/03/24 02:50:46;;;;;;;20.38;10.80;;;;;;;3.24;73.65;99121.72;5092299;28;20108;-76
2021/03/24 02:53:14;;;;;;;19.15;10.75;;;;;;;3.21;73.09;99124.88;5091942;28;20053;-76
2021/03/24 02:55:42;;;;;;;17.33;10.20;;;;;;;3.21;72.89;99124.88;5092654;28;20506;-76
2021/03/24 02:58:09;;;;;;;15.80;8.88;;;;;;;3.26;73.49;99119.59;5092166;28;20050;-76
2021/03/24 03:00:35;;;;;;;16.88;9.65;;;;;;;3.28;72.87;99128.31;5092133;28;20028;-76
2021/03/24 03:03:11;;;;;;;18.98;9.73;;;;;;;3.30;73.22;99121.84;5091152;28;20488;-76
2021/03/24 03:05:38;;;;;;;19.60;10.40;;;;;;;3.33;72.58;99124.09;5091885;28;20104;-76
2021/03/24 03:08:09;;;;;;;20.27;11.20;;;;;;;3.32;72.64;99125.16;5091511;28;20150;-76
2021/03/24 03:10:49;;;;;;;20.40;11.13;;;;;;;3.33;72.41;99132.22;5092104;28;20078;-76
2021/03/24 03:13:31;;;;;;;15.15;8.43;;;;;;;3.32;72.84;99130.56;5091891;28;20119;-76
2021/03/24 03:16:11;;;;;;;15.88;9.70;;;;;;;3.30;72.68;99128.09;5090592;28;20507;-76
2021/03/24 03:19:09;;;;;;;17.20;10.43;;;;;;;3.28;72.73;99130.19;5090434;28;20106;-76
2021/03/24 03:21:44;;;;;;;17.73;10.18;;;;;;;3.26;73.02;99129.63;5066208;28;20127;-76
2021/03/24 03:24:12;;;;;;;19.52;10.90;;;;;;;3.22;72.23;99128.44;5091354;28;20059;-77
2021/03/24 03:26:42;;;;;;;19.42;10.15;;;;;;;3.23;72.90;99140.94;5091696;28;20042;-76
2021/03/24 03:29:16;;;;;;;18.13;9.63;;;;;;;3.24;73.08;99127.13;5089045;28;20027;-76
2021/03/24 03:31:45;;;;;;;17.85;10.65;;;;;;;3.25;72.46;99122.56;5091623;28;20474;-76
2021/03/24 03:34:14;;;;;;;20.02;10.10;;;;;;;3.23;72.33;99122.78;5091935;28;20028;-76
2021/03/24 03:36:44;;;;;;;18.55;10.55;;;;;;;3.23;72.21;99120.06;5091154;28;20081;-76
2021/03/24 03:39:13;;;;;;;16.52;9.90;;;;;;;3.27;72.50;99125.84;5089541;28;20038;-76
2021/03/24 03:41:39;;;;;;;16.52;9.57;;;;;;;3.28;72.33;99122.91;5091422;28;20069;-76
2021/03/24 03:44:07;;;;;;;16.20;9.43;;;;;;;3.28;72.31;99120.19;5090850;28;20023;-76
2021/03/24 03:46:36;;;;;;;19.00;10.15;;;;;;;3.30;72.35;99124.56;5090965;28;20035;-77
2021/03/24 03:49:02;;;;;;;16.47;10.07;;;;;;;3.30;72.29;99119.94;5090877;28;20035;-75
2021/03/24 03:51:40;;;;;;;17.95;10.00;;;;;;;3.30;71.96;99121.84;5091004;28;20281;-75
2021/03/24 03:54:17;;;;;;;18.58;10.52;;;;;;;3.27;71.87;99126.66;5091271;28;20440;-76
2021/03/24 03:57:01;;;;;;;17.75;9.45;;;;;;;3.29;72.34;99123.72;5092618;28;20050;-76
2021/03/24 03:59:35;;;;;;;15.65;8.65;;;;;;;3.32;72.13;99127.88;5093099;28;20035;-76
2021/03/24 04:02:03;;;;;;;14.93;9.18;;;;;;;3.32;71.98;99122.44;5093166;28;20055;-76
2021/03/24 04:04:36;;;;;;;16.67;8.52;;;;;;;3.26;72.10;99125.03;5090656;28;20181;-76
2021/03/24 04:07:20;;;;;;;16.77;9.70;;;;;;;3.25;72.03;99119.84;5092932;28;20480;-76
2021/03/24 04:09:47;;;;;;;15.30;8.77;;;;;;;3.30;71.90;99117.22;5092898;28;20058;-76
2021/03/24 04:12:14;;;;;;;17.58;9.98;;;;;;;3.31;72.39;99120.78;5093188;28;20484;-76
2021/03/24 04:14:42;;;;;;;18.88;10.35;;;;;;;3.31;71.86;99115.38;5093059;28;20361;-75
2021/03/24 04:17:12;;;;;;;21.38;10.07;;;;;;;3.28;71.43;99117.47;5093259;28;20028;-75
2021/03/24 04:19:43;;;;;;;18.90;10.43;;;;;;;3.29;71.65;99118.28;5093086;28;20032;-76
2021/03/24 04:22:11;;;;;;;16.02;9.95;;;;;;;3.31;71.91;99118.06;5090719;28;20020;-76
2021/03/24 04:24:43;;;;;;;14.75;9.05;;;;;;;3.31;71.42;99120.78;5092902;28;20032;-76
2021/03/24 04:27:13;;;;;;;18.52;11.00;;;;;;;3.33;71.53;99118.69;5089010;28;20056;-75
2021/03/24 04:29:55;;;;;;;31.52;14.65;;;;;;;3.38;71.85;99118.81;5091708;28;20020;-76
2021/03/24 04:32:21;;;;;;;27.17;12.65;;;;;;;3.40;71.82;99122.94;5090525;28;20056;-76
2021/03/24 04:34:46;;;;;;;26.42;11.20;;;;;;;3.40;71.39;99117.50;5092705;28;20101;-76
2021/03/24 04:37:34;;;;;;;20.70;10.85;;;;;;;3.45;71.91;99124.97;5092716;28;20024;-76
2021/03/24 04:40:38;;;;;;;18.92;9.60;;;;;;;3.45;71.09;99119.53;5091495;28;20017;-76
2021/03/24 04:43:15;;;;;;;21.58;11.15;;;;;;;3.50;71.10;99118.81;5092131;28;20461;-76
2021/03/24 04:45:49;;;;;;;24.38;12.45;;;;;;;3.49;71.25;99117.97;5092626;28;20028;-76
2021/03/24 04:48:28;;;;;;;20.67;9.82;;;;;;;3.54;71.60;99126.25;5090580;28;20051;-76
2021/03/24 04:51:07;;;;;;;14.52;8.15;;;;;;;3.53;71.03;99119.16;5090362;28;20232;-76
2021/03/24 04:53:41;;;;;;;17.42;9.38;;;;;;;3.50;71.21;99122.34;5090177;28;20441;-77
2021/03/24 04:56:09;;;;;;;17.90;9.82;;;;;;;3.53;71.19;99135.44;5092186;28;20023;-76
2021/03/24 04:58:40;;;;;;;16.45;9.32;;;;;;;3.49;70.65;99128.00;5092327;28;20024;-76
2021/03/24 05:01:39;;;;;;;15.50;9.40;;;;;;;3.47;71.02;99130.13;5092174;28;20016;-78
2021/03/24 05:04:08;;;;;;;18.08;9.48;;;;;;;3.45;70.95;99133.09;5091518;28;20032;-76
2021/03/24 05:06:43;;;;;;;20.95;10.55;;;;;;;3.42;71.14;99133.56;5091941;28;20028;-76
2021/03/24 05:09:10;;;;;;;21.15;11.07;;;;;;;3.41;70.61;99138.13;5089240;28;20020;-76
2021/03/24 05:11:42;;;;;;;22.17;11.40;;;;;;;3.43;71.28;99149.59;5092196;28;20024;-77
2021/03/24 05:14:21;;;;;;;16.20;8.60;;;;;;;3.48;70.55;99139.91;5092283;28;20024;-76
2021/03/24 05:16:50;;;;;;;18.83;10.13;;;;;;;3.49;71.29;99144.28;5091807;28;20105;-77
2021/03/24 05:19:25;;;;;;;16.92;9.63;;;;;;;3.49;70.87;99144.28;5091689;28;20026;-76
2021/03/24 05:22:19;;;;;;;20.60;9.73;;;;;;;3.50;70.92;99145.94;5089301;28;20024;-77
2021/03/24 05:24:47;;;;;;;17.23;9.60;;;;;;;3.50;70.22;99140.53;5091243;28;20161;-77
2021/03/24 05:27:27;;;;;;;16.52;9.18;;;;;;;3.47;70.97;99146.41;5091665;28;20028;-77
2021/03/24 05:29:58;;;;;;;20.55;10.55;;;;;;;3.48;71.04;99151.59;5089324;28;20036;-76
2021/03/24 05:32:30;;;;;;;21.10;13.00;;;;;;;3.49;70.55;99149.72;5091707;28;20028;-77
2021/03/24 05:34:58;;;;;;;24.65;14.23;;;;;;;3.52;70.81;99152.78;5089741;28;20027;-77
2021/03/24 05:37:27;;;;;;;20.80;12.52;;;;;;;3.55;70.66;99154.22;5091621;28;20034;-76
2021/03/24 05:39:53;;;;;;;23.92;14.70;;;;;;;3.57;70.61;99161.03;5088823;28;20052;-76
2021/03/24 05:42:52;;;;;;;24.75;14.77;;;;;;;3.62;71.15;99163.06;5092264;28;20035;-76
2021/03/24 05:45:32;;;;;;;24.52;13.45;;;;;;;3.63;70.22;99177.44;5088927;28;20031;-76
2021/03/24 05:48:05;;;;;;;;;;;;;;;3.62;70.26;99170.38;5088994;28;20099;-76
2021/03/24 05:50:52;;;;;;;25.48;12.02;;;;;;;3.66;70.89;99177.00;5086728;28;19912;-77
2021/03/24 05:53:32;;;;;;;34.17;19.58;;;;;;;3.66;70.53;99172.41;5089342;28;20024;-76
2021/03/24 05:56:16;;;;;;;;;;;;;;;3.69;70.38;99176.53;5089983;28;20024;-77
2021/03/24 05:59:01;;;;;;;34.17;18.98;;;;;;;3.69;70.11;99171.91;5090397;28;20010;-75
2021/03/24 06:01:45;;;;;;;48.33;25.17;;;;;;;3.73;70.08;99172.28;5090429;28;20430;-76
2021/03/24 06:04:19;;;;;;;51.50;27.92;;;;;;;3.77;70.13;99178.91;5087896;28;20032;-77
2021/03/24 06:07:07;;;;;;;26.83;13.65;;;;;;;3.77;70.52;99178.06;5094140;28;20080;-76
2021/03/24 06:10:27;;;;;;;124.85;40.58;;;;;;;3.79;69.94;99181.38;5092714;28;20436;-76
2021/03/24 06:13:20;;;;;;;86.70;31.52;;;;;;;3.84;70.34;99173.34;5028830;28;20120;-76
2021/03/24 06:16:08;;;;;;;99.97;35.67;;;;;;;3.87;70.51;99176.41;5032652;28;20047;-76
2021/03/24 06:19:11;;;;;;;28.77;13.63;;;;;;;3.84;69.75;99179.63;5075578;28;20396;-76
2021/03/24 06:21:54;;;;;;;116.65;38.03;;;;;;;3.90;69.94;99179.72;5093140;28;20040;-75
2021/03/24 06:24:41;;;;;;;192.63;64.80;;;;;;;3.98;70.14;99182.94;5093584;28;20461;-75
2021/03/24 06:27:36;;;;;;;34.13;16.15;;;;;;;4.06;70.57;99186.38;5094205;28;20107;-75
2021/03/24 06:30:22;;;;;;;29.33;13.95;;;;;;;4.09;69.98;99178.56;5092926;28;20032;-76
2021/03/24 06:33:29;;;;;;;28.85;14.45;;;;;;;4.13;69.83;99187.06;5093892;28;20106;-76
2021/03/24 06:36:29;;;;;;;26.05;13.85;;;;;;;4.17;69.49;99190.94;5092165;28;20020;-77
2021/03/24 06:39:23;;;;;;;53.50;23.40;;;;;;;4.20;69.20;99186.94;5091903;28;20031;-76
2021/03/24 06:42:22;;;;;;;32.30;16.00;;;;;;;4.23;69.80;99192.72;5094555;28;20081;-76
2021/03/24 06:45:25;;;;;;;34.47;15.70;;;;;;;4.25;69.63;99187.88;5093871;28;20099;-76
2021/03/24 06:48:15;;;;;;;47.67;20.90;;;;;;;4.30;69.46;99188.00;5091078;28;20589;-77
2021/03/24 06:50:59;;;;;;;;;;;;;;;4.32;68.66;99202.19;5093560;28;20499;-77
2021/03/24 06:53:58;;;;;;;38.58;16.48;;;;;;;4.39;68.95;99199.31;5093294;28;19916;-75
2021/03/24 06:56:45;;;;;;;24.23;13.15;;;;;;;4.42;68.52;99201.56;5092687;28;20020;-76
2021/03/24 06:59:30;;;;;;;24.33;11.80;;;;;;;4.42;68.56;99206.19;5091035;28;20028;-76
2021/03/24 07:02:28;;;;;;;24.33;14.40;;;;;;;4.47;68.92;99200.88;5091731;28;20040;-77
2021/03/24 07:05:00;;;;;;;37.15;16.88;;;;;;;4.55;68.64;99202.41;5091685;28;20542;-76
2021/03/24 07:07:54;;;;;;;25.50;13.88;;;;;;;4.60;68.93;99203.31;5094020;28;20028;-76
2021/03/24 07:11:07;;;;;;;25.65;14.07;;;;;;;4.60;67.83;99206.03;5095208;28;20024;-76
2021/03/24 07:14:24;;;;;;;32.33;15.77;;;;;;;4.65;68.42;99199.91;5048549;28;20048;-76
2021/03/24 07:17:07;;;;;;;14.82;7.93;;;;;;;4.72;66.93;99200.56;5031443;28;20120;-76
2021/03/24 07:20:09;;;;;;;24.90;13.75;;;;;;;4.71;67.29;99204.34;5093726;28;20028;-76
2021/03/24 07:22:41;;;;;;;23.83;13.07;;;;;;;4.74;67.18;99203.06;5094041;28;20483;-76
2021/03/24 07:25:21;;;;;;;24.85;13.35;;;;;;;4.82;67.14;99204.59;5094870;28;20031;-77
2021/03/24 07:28:14;;;;;;;21.55;11.45;;;;;;;4.85;67.10;99204.94;5095168;28;20032;-77
2021/03/24 07:31:14;;;;;;;23.35;13.45;;;;;;;4.92;67.29;99205.63;5088790;28;20043;-77
2021/03/24 07:33:49;;;;;;;27.13;14.13;;;;;;;4.98;66.49;99212.00;5094479;28;20031;-76
2021/03/24 07:36:28;;;;;;;29.38;16.02;;;;;;;5.05;67.30;99215.41;5093220;28;20024;-76
2021/03/24 07:39:21;;;;;;;22.33;12.05;;;;;;;5.14;66.84;99218.56;5088809;28;20020;-77
2021/03/24 07:41:54;;;;;;;37.25;18.20;;;;;;;5.19;66.91;99209.66;5087228;28;20028;-76
2021/03/24 07:44:38;;;;;;;23.38;13.63;;;;;;;5.30;66.47;99216.97;5093828;28;20526;-75
2021/03/24 07:47:25;;;;;;;27.20;15.25;;;;;;;5.38;65.97;99220.38;5094526;28;20024;-75
2021/03/24 07:50:13;;;;;;;23.80;12.98;;;;;;;5.48;66.05;99223.28;5093145;28;20121;-75
2021/03/24 07:53:04;;;;;;;29.17;14.40;;;;;;;5.54;65.66;99226.91;5090676;28;20066;-77
2021/03/24 07:55:44;;;;;;;29.63;14.18;;;;;;;5.61;65.55;99241.22;5094454;28;20149;-78
2021/03/24 07:58:34;;;;;;;23.33;14.45;;;;;;;5.63;66.11;99237.16;5090600;28;20026;-78
2021/03/24 08:01:21;;;;;;;25.63;14.70;;;;;;;5.69;65.49;99234.53;5092846;28;20035;-77
2021/03/24 08:04:32;;;;;;;27.40;14.23;;;;;;;5.76;64.99;99233.28;5093531;28;20070;-77
2021/03/24 08:07:03;;;;;;;22.23;12.00;;;;;;;5.82;64.25;99235.03;5047253;28;20421;-77
2021/03/24 08:09:41;;;;;;;23.55;12.40;;;;;;;5.84;63.83;99229.38;5093240;28;20039;-78
2021/03/24 08:12:21;;;;;;;19.92;12.05;;;;;;;5.86;64.02;99235.41;5085315;28;20036;-78
2021/03/24 08:15:05;;;;;;;28.15;15.68;;;;;;;5.93;63.55;99238.75;5091613;28;20035;-78
2021/03/24 08:17:33;;;;;;;22.88;12.43;;;;;;;6.00;63.63;99235.94;5092137;28;20060;-78
2021/03/24 08:20:10;;;;;;;25.73;11.95;;;;;;;6.08;63.44;99237.41;5092951;28;20468;-78
2021/03/24 08:22:55;;;;;;;23.90;13.68;;;;;;;6.16;63.00;99234.28;5092091;28;20081;-78
2021/03/24 08:25:23;;;;;;;25.80;13.13;;;;;;;6.22;62.34;99238.72;5093295;28;20036;-78
2021/03/24 08:28:04;;;;;;;37.65;16.95;;;;;;;6.25;62.60;99226.50;5093532;28;20021;-77
2021/03/24 08:30:56;;;;;;;38.28;18.05;;;;;;;6.28;62.38;99233.38;5093541;28;20039;-79
2021/03/24 08:33:49;;;;;;;20.13;10.38;;;;;;;6.33;61.97;99239.72;5093478;28;20024;-78
2021/03/24 08:36:49;;;;;;;17.45;9.35;;;;;;;6.36;61.57;99233.75;5093540;28;20476;-79
2021/03/24 08:39:39;;;;;;;23.85;13.70;;;;;;;6.44;61.38;99231.69;5030938;28;20116;-78
2021/03/24 08:42:11;;;;;;;28.38;14.48;;;;;;;6.51;61.28;99237.81;5090496;28;20100;-78
2021/03/24 08:44:51;;;;;;;18.67;10.77;;;;;;;6.55;61.65;99226.13;5093383;28;20031;-78
2021/03/24 08:47:24;;;;;;;15.40;9.63;;;;;;;6.60;61.08;99225.38;5093059;28;20043;-79
2021/03/24 08:49:54;;;;;;;15.90;9.10;;;;;;;6.58;60.01;99226.72;5093103;28;20153;-79
2021/03/24 08:52:26;;;;;;;19.02;10.38;;;;;;;6.53;60.65;99220.13;5092987;28;20077;-78
2021/03/24 08:55:13;;;;;;;18.95;10.50;;;;;;;6.55;60.03;99217.13;5093138;28;20099;-78
2021/03/24 08:57:48;;;;;;;16.25;9.80;;;;;;;6.59;60.02;99212.00;5093131;28;20028;-78
2021/03/24 09:00:19;;;;;;;17.92;9.95;;;;;;;6.61;60.18;99207.13;5093283;28;20103;-79
2021/03/24 09:03:04;;;;;;;16.42;10.60;;;;;;;6.64;60.29;99209.34;5092998;28;20054;-78
2021/03/24 09:05:50;;;;;;;16.05;10.65;;;;;;;6.65;59.71;99214.53;5093020;28;20028;-79
2021/03/24 09:08:33;;;;;;;18.83;10.45;;;;;;;6.71;59.85;99207.28;5092904;28;20027;-79
2021/03/24 09:11:28;;;;;;;20.13;11.10;;;;;;;6.77;59.65;99203.53;5092848;28;20487;-79
2021/03/24 09:14:02;;;;;;;21.38;12.48;;;;;;;6.84;59.28;99211.53;5092715;28;20107;-79
2021/03/24 09:16:57;;;;;;;21.23;12.88;;;;;;;6.94;59.60;99208.09;5092656;28;20514;-79
2021/03/24 09:19:23;;;;;;;35.47;14.45;;;;;;;7.02;59.75;99202.22;5086732;28;20051;-79
2021/03/24 09:21:51;;;;;;;23.90;11.55;;;;;;;7.07;59.36;99202.28;5092820;28;20028;-79
2021/03/24 09:24:31;;;;;;;18.33;9.55;;;;;;;7.11;58.99;99203.41;5092823;28;20086;-79
2021/03/24 09:27:18;;;;;;;16.60;9.10;;;;;;;7.12;58.51;99199.59;5092741;28;20705;-79
2021/03/24 09:30:15;;;;;;;19.17;10.75;;;;;;;7.13;58.49;99192.22;5092766;28;20153;-79
2021/03/24 09:32:58;;;;;;;28.77;13.88;;;;;;;7.14;57.80;99182.97;5087971;28;20048;-79
2021/03/24 09:35:51;;;;;;;11.10;7.25;;;;;;;7.16;58.28;99189.00;5092548;28;20028;-79
2021/03/24 09:38:20;;;;;;;18.73;9.85;;;;;;;7.14;57.77;99191.97;5092475;28;20036;-79
2021/03/24 09:40:50;;;;;;;12.98;8.75;;;;;;;7.14;56.97;99193.88;5091796;28;20028;-79
2021/03/24 09:43:29;;;;;;;16.92;10.13;;;;;;;7.22;58.19;99192.59;5091249;28;20035;-79
2021/03/24 09:46:10;;;;;;;22.85;12.77;;;;;;;7.23;58.16;99178.72;5092304;28;20032;-79
2021/03/24 09:49:04;;;;;;;17.55;10.63;;;;;;;7.26;58.36;99183.66;5092441;28;20529;-79
2021/03/24 09:51:38;;;;;;;15.70;9.93;;;;;;;7.26;57.63;99177.38;5090773;28;20446;-79
2021/03/24 09:54:27;;;;;;;18.23;11.52;;;;;;;7.23;57.95;99177.88;5092759;28;20036;-79
2021/03/24 09:57:06;;;;;;;21.35;13.45;;;;;;;7.29;57.79;99180.41;5092547;28;20085;-79
2021/03/24 09:59:48;;;;;;;13.40;8.30;;;;;;;7.33;56.92;99177.19;5092486;28;20032;-79
2021/03/24 10:02:34;;;;;;;15.02;10.40;;;;;;;7.32;56.16;99176.34;5092143;28;20036;-79
2021/03/24 10:05:05;;;;;;;16.05;8.20;;;;;;;7.31;56.71;99182.88;5092170;28;20032;-80
2021/03/24 10:07:37;;;;;;;13.70;8.48;;;;;;;7.26;55.74;99180.09;5092147;28;20036;-79
2021/03/24 10:10:14;;;;;;;10.93;6.38;;;;;;;7.13;55.91;99173.13;5092157;28;20476;-79
2021/03/24 10:12:57;;;;;;;13.55;8.40;;;;;;;7.06;56.31;99167.88;5092083;28;20074;-79
2021/03/24 10:15:29;;;;;;;18.45;11.90;;;;;;;7.13;56.58;99170.41;5092112;28;20024;-79
2021/03/24 10:18:17;;;;;;;22.63;13.60;;;;;;;7.20;56.90;99176.50;5091809;28;20451;-79
2021/03/24 10:21:23;;;;;;;18.83;10.88;;;;;;;7.29;57.32;99169.50;5092223;28;20028;-79
2021/03/24 10:24:00;;;;;;;17.70;12.13;;;;;;;7.35;56.88;99170.38;5029729;28;20041;-78
2021/03/24 10:26:45;;;;;;;19.83;12.38;;;;;;;7.34;57.08;99170.59;5086922;28;20048;-79
2021/03/24 10:29:15;;;;;;;18.02;12.35;;;;;;;7.25;56.81;99173.81;5092150;28;20020;-78
2021/03/24 10:31:55;;;;;;;13.10;8.20;;;;;;;7.11;57.12;99167.13;5092072;28;20020;-78
2021/03/24 10:34:32;;;;;;;14.52;9.45;;;;;;;7.00;57.24;99164.25;5092150;28;20024;-79
2021/03/24 10:37:07;;;;;;;15.45;9.93;;;;;;;6.95;57.40;99168.84;5090695;28;20115;-78
2021/03/24 10:39:46;;;;;;;49.40;23.80;;;;;;;6.98;57.35;99162.88;5091220;28;20532;-79
2021/03/24 10:42:43;;;;;;;50.63;22.40;;;;;;;7.05;57.71;99166.25;5090882;28;20074;-79
2021/03/24 10:45:20;;;;;;;58.88;23.70;;;;;;;7.07;57.38;99155.91;5090482;28;20040;-79
2021/03/24 10:48:09;;;;;;;59.10;23.85;;;;;;;7.07;56.53;99157.78;5091732;28;20024;-79
2021/03/24 10:50:59;;;;;;;45.90;21.10;;;;;;;7.09;57.34;99161.09;5091983;28;20072;-79
2021/03/24 10:53:29;;;;;;;60.20;30.90;;;;;;;7.10;57.29;99154.56;5095456;28;20063;-79
2021/03/24 10:56:05;;;;;;;31.05;18.33;;;;;;;7.11;56.80;99156.19;5094850;28;20545;-79
2021/03/24 10:59:12;;;;;;;168.52;70.03;;;;;;;7.10;56.85;99162.72;5094556;28;20024;-79
2021/03/24 11:02:00;;;;;;;180.98;59.90;;;;;;;7.12;56.85;99147.78;5095210;28;20068;-79
2021/03/24 11:05:02;;;;;;;159.85;50.17;;;;;;;7.07;56.71;99152.34;5086928;28;20044;-79
2021/03/24 11:07:42;;;;;;;36.78;15.35;;;;;;;7.00;55.76;99155.28;5094802;28;20123;-78
2021/03/24 11:10:10;;;;;;;;;;;;;;;6.92;56.57;99153.00;5096015;28;20097;-78
2021/03/24 11:12:46;;;;;;;137.10;45.03;;;;;;;6.91;56.55;99157.63;5095512;28;19912;-79
2021/03/24 11:15:21;;;;;;;169.73;54.97;;;;;;;6.93;56.94;99163.63;5094311;28;20525;-79
2021/03/24 11:17:55;;;;;;;22.67;12.23;;;;;;;6.87;56.19;99156.50;5095140;28;20024;-79
2021/03/24 11:20:41;;;;;;;27.85;13.63;;;;;;;6.77;56.43;99153.63;5094995;28;20047;-78
2021/03/24 11:23:11;;;;;;;67.68;26.88;;;;;;;6.66;56.17;99160.88;5093741;28;20055;-79
2021/03/24 11:25:49;;;;;;;24.60;14.07;;;;;;;6.61;56.76;99153.44;5093561;28;20040;-78
2021/03/24 11:28:37;;;;;;;22.85;13.55;;;;;;;6.54;56.42;99152.78;5093620;28;20032;-79
2021/03/24 11:31:17;;;;;;;79.90;30.42;;;;;;;6.51;57.44;99148.69;5094818;28;20058;-79
2021/03/24 11:33:49;;;;;;;80.90;28.95;;;;;;;6.54;57.23;99148.19;5094923;28;20349;-78
2021/03/24 11:36:26;;;;;;;101.00;41.05;;;;;;;6.57;57.34;99149.56;5094729;28;20028;-78
2021/03/24 11:39:13;;;;;;;61.78;27.45;;;;;;;6.60;57.46;99142.78;5093524;28;20032;-79
2021/03/24 11:41:40;;;;;;;69.43;31.15;;;;;;;6.65;57.32;99140.94;5094434;28;20027;-78
2021/03/24 11:44:07;;;;;;;51.38;25.88;;;;;;;6.74;57.63;99141.31;5093139;28;20028;-78
2021/03/24 11:46:42;;;;;;;83.05;32.00;;;;;;;6.80;57.40;99137.56;5094447;28;20031;-79
2021/03/24 11:49:45;;;;;;;79.07;28.27;;;;;;;6.88;56.91;99140.94;5094948;28;20032;-79
2021/03/24 11:52:42;;;;;;;50.83;21.23;;;;;;;6.97;56.98;99129.31;5094429;28;20024;-78
2021/03/24 11:55:49;;;;;;;21.92;11.93;;;;;;;7.04;56.96;99131.88;5094683;28;20032;-79
2021/03/24 11:58:38;;;;;;;31.42;14.95;;;;;;;7.06;56.41;99121.53;5082484;28;20531;-79
2021/03/24 12:01:29;;;;;;;28.80;16.20;;;;;;;7.10;56.48;99125.38;5094624;28;20388;-78
2021/03/24 12:04:00;;;;;;;37.75;20.10;;;;;;;7.19;56.04;99124.91;5093468;28;20129;-79
2021/03/24 12:06:25;;;;;;;17.20;9.80;;;;;;;7.23;55.74;99129.59;5094037;28;20400;-79
2021/03/24 12:09:01;;;;;;;18.90;8.82;;;;;;;7.21;55.11;99131.75;5093950;28;20038;-79
2021/03/24 12:11:32;;;;;;;18.48;10.55;;;;;;;7.18;55.15;99132.28;5094124;28;20542;-79
2021/03/24 12:14:04;;;;;;;16.00;8.10;;;;;;;7.13;55.10;99124.03;5094326;28;20027;-78
2021/03/24 12:16:52;;;;;;;15.90;8.75;;;;;;;6.99;55.15;99124.44;5094074;28;20078;-79